createdAt,value
2023-12-14T00:00:28.515Z,3.47
2023-12-14T00:01:30.276Z,3.49
2023-12-14T00:02:32.127Z,3.45
2023-12-14T00:03:34.971Z,3.46
2023-12-14T00:04:36.759Z,3.47
2023-12-14T00:05:38.685Z,3.46
2023-12-14T00:06:40.253Z,3.45
2023-12-14T00:07:41.884Z,3.46
2023-12-14T00:08:43.768Z,3.46
2023-12-14T00:09:45.363Z,3.45
2023-12-14T00:10:47.025Z,3.44
2023-12-14T00:11:48.716Z,3.42
2023-12-14T00:12:52.039Z,3.41
2023-12-14T00:13:56.408Z,3.39
2023-12-14T00:14:58.394Z,3.41
2023-12-14T00:16:00.331Z,3.39
2023-12-14T00:17:01.995Z,3.38
2023-12-14T00:18:03.708Z,3.40
2023-12-14T00:19:05.512Z,3.39
2023-12-14T00:20:08.170Z,3.42
2023-12-14T00:21:10.026Z,3.41
2023-12-14T00:22:11.636Z,3.41
2023-12-14T00:23:13.498Z,3.45
2023-12-14T00:24:15.137Z,3.45
2023-12-14T00:25:16.832Z,3.46
2023-12-14T00:26:18.585Z,3.46
2023-12-14T00:27:22.213Z,3.42
2023-12-14T00:28:26.796Z,3.40
2023-12-14T00:29:29.643Z,3.38
2023-12-14T00:30:31.689Z,3.39
2023-12-14T00:31:33.557Z,3.40
2023-12-14T00:32:35.599Z,3.40
2023-12-14T00:33:37.780Z,3.39
2023-12-14T00:34:39.765Z,3.41
2023-12-14T00:35:41.454Z,3.41
2023-12-14T00:36:43.880Z,3.43
2023-12-14T00:37:45.586Z,3.44
2023-12-14T00:38:47.595Z,3.44
2023-12-14T00:39:49.463Z,3.45
2023-12-14T00:40:51.098Z,3.44
2023-12-14T00:41:52.853Z,3.45
2023-12-14T00:42:54.656Z,3.44
2023-12-14T00:43:56.526Z,3.39
2023-12-14T00:44:58.336Z,3.38
2023-12-14T00:46:02.420Z,3.40
2023-12-14T00:47:04.306Z,3.42
2023-12-14T00:48:06.393Z,3.40
2023-12-14T00:49:08.441Z,3.44
2023-12-14T00:50:10.752Z,3.42
2023-12-14T00:51:12.593Z,3.45
2023-12-14T00:52:14.307Z,3.46
2023-12-14T00:53:16.070Z,3.46
2023-12-14T00:54:18.039Z,3.43
2023-12-14T00:55:19.779Z,3.41
2023-12-14T00:56:22.079Z,3.42
2023-12-14T00:57:23.864Z,3.42
2023-12-14T00:58:25.427Z,3.42
2023-12-14T00:59:30.391Z,3.42
2023-12-14T01:00:32.497Z,3.40
2023-12-14T01:01:34.097Z,3.39
2023-12-14T01:02:36.084Z,3.41
2023-12-14T01:03:37.921Z,3.44
2023-12-14T01:04:39.687Z,3.42
2023-12-14T01:05:41.650Z,3.44
2023-12-14T01:06:43.345Z,3.44
2023-12-14T01:07:45.066Z,3.43
2023-12-14T01:08:46.782Z,3.44
2023-12-14T01:09:48.381Z,3.45
2023-12-14T01:10:50.075Z,3.44
2023-12-14T01:11:51.845Z,3.46
2023-12-14T01:12:55.916Z,3.44
2023-12-14T01:13:57.781Z,3.45
2023-12-14T01:14:59.532Z,3.41
2023-12-14T01:16:01.281Z,3.42
2023-12-14T01:17:05.250Z,3.41
2023-12-14T01:18:07.093Z,3.40
2023-12-14T01:19:09.033Z,3.43
2023-12-14T01:20:11.368Z,3.42
2023-12-14T01:21:13.089Z,3.43
2023-12-14T01:22:16.308Z,3.47
2023-12-14T01:23:21.549Z,3.48
2023-12-14T01:24:25.400Z,3.49
2023-12-14T01:25:26.983Z,3.49
2023-12-14T01:26:28.928Z,3.50
2023-12-14T01:27:30.508Z,3.49
2023-12-14T01:28:32.305Z,3.49
2023-12-14T01:29:33.930Z,3.50
2023-12-14T01:30:35.539Z,3.50
2023-12-14T01:31:37.240Z,3.50
2023-12-14T01:32:39.054Z,3.52
2023-12-14T01:33:40.849Z,3.50
2023-12-14T01:34:42.690Z,3.53
2023-12-14T01:35:44.533Z,3.52
2023-12-14T01:36:46.246Z,3.52
2023-12-14T01:37:48.490Z,3.53
2023-12-14T01:38:53.363Z,3.54
2023-12-14T01:39:55.060Z,3.52
2023-12-14T01:40:57.610Z,3.50
2023-12-14T01:41:59.547Z,3.50
2023-12-14T01:43:09.265Z,3.49
2023-12-14T01:44:10.887Z,3.47
2023-12-14T01:45:16.282Z,3.46
2023-12-14T01:46:18.294Z,3.46
2023-12-14T01:47:20.015Z,3.45
2023-12-14T01:48:22.695Z,3.46
2023-12-14T01:49:24.585Z,3.47
2023-12-14T01:50:26.617Z,3.48
2023-12-14T01:51:28.869Z,3.46
2023-12-14T01:52:30.534Z,3.46
2023-12-14T01:53:32.284Z,3.47
2023-12-14T01:54:34.662Z,3.48
2023-12-14T01:55:39.837Z,3.48
2023-12-14T01:56:41.955Z,3.47
2023-12-14T01:57:47.927Z,3.47
2023-12-14T01:58:49.827Z,3.44
2023-12-14T01:59:54.134Z,3.46
2023-12-14T02:01:14.690Z,3.45
2023-12-14T02:02:16.667Z,3.45
2023-12-14T02:03:21.322Z,3.43
2023-12-14T02:04:25.953Z,3.43
2023-12-14T02:05:28.009Z,3.43
2023-12-14T02:06:29.986Z,3.41
2023-12-14T02:07:31.603Z,3.42
2023-12-14T02:08:33.347Z,3.42
2023-12-14T02:09:35.042Z,3.46
2023-12-14T02:10:36.726Z,3.47
2023-12-14T02:11:38.661Z,3.46
2023-12-14T02:12:40.326Z,3.46
2023-12-14T02:13:42.059Z,3.47
2023-12-14T02:14:43.893Z,3.47
2023-12-14T02:15:45.525Z,3.46
2023-12-14T02:16:49.914Z,3.47
2023-12-14T02:17:51.775Z,3.45
2023-12-14T02:18:53.804Z,3.45
2023-12-14T02:19:55.980Z,3.45
2023-12-14T02:20:57.980Z,3.45
2023-12-14T02:21:59.783Z,3.44
2023-12-14T02:23:02.953Z,3.44
2023-12-14T02:24:05.161Z,3.42
2023-12-14T02:25:07.542Z,3.40
2023-12-14T02:26:09.495Z,3.44
2023-12-14T02:27:11.269Z,3.44
2023-12-14T02:28:13.020Z,3.44
2023-12-14T02:29:16.050Z,3.44
2023-12-14T02:30:19.490Z,3.43
2023-12-14T02:31:21.775Z,3.46
2023-12-14T02:32:26.606Z,3.47
2023-12-14T02:33:28.626Z,3.47
2023-12-14T02:34:30.274Z,3.46
2023-12-14T02:35:31.903Z,3.46
2023-12-14T02:36:35.714Z,3.45
2023-12-14T02:37:47.219Z,3.45
2023-12-14T02:38:49.072Z,3.45
2023-12-14T02:39:50.899Z,3.41
2023-12-14T02:40:54.091Z,3.41
2023-12-14T02:41:56.097Z,3.40
2023-12-14T02:42:58.810Z,3.41
2023-12-14T02:44:00.438Z,3.39
2023-12-14T02:45:03.281Z,3.42
2023-12-14T02:46:05.243Z,3.43
2023-12-14T02:47:06.961Z,3.41
2023-12-14T02:48:10.362Z,3.41
2023-12-14T02:49:13.913Z,3.40
2023-12-14T02:50:15.823Z,3.42
2023-12-14T02:51:18.066Z,3.45
2023-12-14T02:52:19.927Z,3.45
2023-12-14T02:53:21.722Z,3.45
2023-12-14T02:54:23.681Z,3.46
2023-12-14T02:55:25.449Z,3.46
2023-12-14T02:56:27.076Z,3.46
2023-12-14T02:57:28.697Z,3.47
2023-12-14T02:58:30.410Z,3.41
2023-12-14T02:59:32.062Z,3.41
2023-12-14T03:00:36.476Z,3.42
2023-12-14T03:01:38.133Z,3.42
2023-12-14T03:02:42.365Z,3.38
2023-12-14T03:03:44.154Z,3.40
2023-12-14T03:04:46.081Z,3.41
2023-12-14T03:05:50.489Z,3.44
2023-12-14T03:06:52.901Z,3.46
2023-12-14T03:07:54.656Z,3.48
2023-12-14T03:08:56.388Z,3.48
2023-12-14T03:09:58.503Z,3.49
2023-12-14T03:11:01.365Z,3.49
2023-12-14T03:12:03.450Z,3.48
2023-12-14T03:13:08.025Z,3.47
2023-12-14T03:14:12.159Z,3.48
2023-12-14T03:15:13.824Z,3.49
2023-12-14T03:16:15.529Z,3.50
2023-12-14T03:17:17.737Z,3.51
2023-12-14T03:18:19.744Z,3.50
2023-12-14T03:19:21.646Z,3.49
2023-12-14T03:20:24.057Z,3.47
2023-12-14T03:21:25.713Z,3.49
2023-12-14T03:22:30.330Z,3.52
2023-12-14T03:23:34.456Z,3.52
2023-12-14T03:24:39.582Z,3.51
2023-12-14T03:25:41.477Z,3.51
2023-12-14T03:26:43.733Z,3.51
2023-12-14T03:27:48.069Z,3.50
2023-12-14T03:28:49.929Z,3.50
2023-12-14T03:29:51.763Z,3.50
2023-12-14T03:30:55.881Z,3.48
2023-12-14T03:31:58.472Z,3.50
2023-12-14T03:33:02.557Z,3.48
2023-12-14T03:34:04.417Z,3.49
2023-12-14T03:35:06.678Z,3.50
2023-12-14T03:36:08.503Z,3.52
2023-12-14T03:37:10.141Z,3.50
2023-12-14T03:38:12.925Z,3.48
2023-12-14T03:39:17.170Z,3.46
2023-12-14T03:40:18.773Z,3.46
2023-12-14T03:41:20.460Z,3.46
2023-12-14T03:42:22.631Z,3.44
2023-12-14T03:43:24.374Z,3.45
2023-12-14T03:44:26.802Z,3.45
2023-12-14T03:45:28.556Z,3.44
2023-12-14T03:46:30.452Z,3.42
2023-12-14T03:47:32.066Z,3.42
2023-12-14T03:48:34.648Z,3.42
2023-12-14T03:49:39.744Z,3.40
2023-12-14T03:50:41.762Z,3.37
2023-12-14T03:51:44.926Z,3.37
2023-12-14T03:52:46.726Z,3.38
2023-12-14T03:53:48.544Z,3.37
2023-12-14T03:54:50.179Z,3.37
2023-12-14T03:55:51.828Z,3.36
2023-12-14T03:56:53.618Z,3.36
2023-12-14T03:57:55.257Z,3.36
2023-12-14T03:58:58.413Z,3.36
2023-12-14T04:00:00.184Z,3.37
2023-12-14T04:01:03.556Z,3.37
2023-12-14T04:02:05.686Z,3.37
2023-12-14T04:03:07.695Z,3.36
2023-12-14T04:04:09.439Z,3.37
2023-12-14T04:05:11.636Z,3.38
2023-12-14T04:06:14.069Z,3.37
2023-12-14T04:07:15.703Z,3.38
2023-12-14T04:08:17.731Z,3.36
2023-12-14T04:09:26.807Z,3.35
2023-12-14T04:10:28.469Z,3.33
2023-12-14T04:11:32.669Z,3.33
2023-12-14T04:12:34.771Z,3.30
2023-12-14T04:13:36.765Z,3.29
2023-12-14T04:14:38.640Z,3.30
2023-12-14T04:15:40.580Z,3.29
2023-12-14T04:16:42.706Z,3.28
2023-12-14T04:17:44.651Z,3.28
2023-12-14T04:18:46.548Z,3.28
2023-12-14T04:19:48.479Z,3.28
2023-12-14T04:20:53.451Z,3.27
2023-12-14T04:21:55.101Z,3.24
2023-12-14T04:22:56.733Z,3.23
2023-12-14T04:23:58.730Z,3.21
2023-12-14T04:25:00.708Z,3.22
2023-12-14T04:26:02.812Z,3.22
2023-12-14T04:27:04.902Z,3.24
2023-12-14T04:28:06.535Z,3.24
2023-12-14T04:29:08.640Z,3.25
2023-12-14T04:30:12.122Z,3.25
2023-12-14T04:31:13.818Z,3.26
2023-12-14T04:32:15.696Z,3.27
2023-12-14T04:33:17.782Z,3.25
2023-12-14T04:34:20.163Z,3.24
2023-12-14T04:35:23.448Z,3.24
2023-12-14T04:36:25.103Z,3.24
2023-12-14T04:37:29.037Z,3.22
2023-12-14T04:38:30.677Z,3.17
2023-12-14T04:39:32.725Z,3.15
2023-12-14T04:40:34.639Z,3.14
2023-12-14T04:41:36.579Z,3.13
2023-12-14T04:42:38.641Z,3.13
2023-12-14T04:43:43.747Z,3.13
2023-12-14T04:44:45.454Z,3.11
2023-12-14T04:45:47.084Z,3.12
2023-12-14T04:46:49.607Z,3.11
2023-12-14T04:47:51.434Z,3.09
2023-12-14T04:48:53.121Z,3.07
2023-12-14T04:49:54.909Z,3.08
2023-12-14T04:50:56.718Z,3.08
2023-12-14T04:51:58.832Z,3.04
2023-12-14T04:53:00.952Z,3.03
2023-12-14T04:54:05.199Z,3.02
2023-12-14T04:55:07.713Z,3.00
2023-12-14T04:56:13.146Z,3.00
2023-12-14T04:57:15.342Z,3.00
2023-12-14T04:58:17.757Z,2.99
2023-12-14T04:59:19.763Z,2.99
2023-12-14T05:00:21.649Z,2.99
2023-12-14T05:01:23.701Z,2.99
2023-12-14T05:02:25.451Z,3.00
2023-12-14T05:03:27.074Z,2.99
2023-12-14T05:04:29.560Z,3.00
2023-12-14T05:05:31.314Z,3.00
2023-12-14T05:06:36.441Z,3.01
2023-12-14T05:07:38.977Z,3.01
2023-12-14T05:08:40.703Z,3.02
2023-12-14T05:09:42.692Z,3.01
2023-12-14T05:10:44.651Z,3.02
2023-12-14T05:11:46.501Z,3.00
2023-12-14T05:12:48.124Z,3.01
2023-12-14T05:13:49.975Z,2.99
2023-12-14T05:14:51.716Z,2.95
2023-12-14T05:15:56.743Z,2.93
2023-12-14T05:16:58.649Z,2.94
2023-12-14T05:18:00.682Z,2.91
2023-12-14T05:19:02.907Z,2.89
2023-12-14T05:20:09.884Z,2.90
2023-12-14T05:21:18.452Z,2.91
2023-12-14T05:22:20.197Z,2.91
2023-12-14T05:23:21.964Z,2.91
2023-12-14T05:24:23.678Z,2.92
2023-12-14T05:25:25.344Z,2.92
2023-12-14T05:26:26.962Z,2.93
2023-12-14T05:27:28.797Z,2.94
2023-12-14T05:28:30.449Z,2.94
2023-12-14T05:29:34.620Z,2.93
2023-12-14T05:30:36.517Z,2.91
2023-12-14T05:31:39.120Z,2.94
2023-12-14T05:32:41.718Z,2.94
2023-12-14T05:33:43.732Z,2.94
2023-12-14T05:34:45.447Z,2.92
2023-12-14T05:35:49.414Z,2.92
2023-12-14T05:36:51.078Z,2.89
2023-12-14T05:37:53.035Z,2.87
2023-12-14T05:38:54.891Z,2.86
2023-12-14T05:39:56.665Z,2.81
2023-12-14T05:40:58.267Z,2.83
2023-12-14T05:42:00.127Z,2.83
2023-12-14T05:43:01.711Z,2.82
2023-12-14T05:44:03.369Z,2.80
2023-12-14T05:45:08.533Z,2.80
2023-12-14T05:46:21.828Z,2.77
2023-12-14T05:47:26.758Z,2.75
2023-12-14T05:48:29.935Z,2.76
2023-12-14T05:49:31.882Z,2.75
2023-12-14T05:50:33.625Z,2.77
2023-12-14T05:51:36.747Z,2.78
2023-12-14T05:52:41.719Z,2.80
2023-12-14T05:53:43.601Z,2.80
2023-12-14T05:54:45.204Z,2.81
2023-12-14T05:55:47.536Z,2.82
2023-12-14T05:56:49.191Z,2.84
2023-12-14T05:57:51.060Z,2.83
2023-12-14T05:58:53.137Z,2.86
2023-12-14T05:59:55.038Z,2.86
2023-12-14T06:00:57.955Z,2.84
2023-12-14T06:02:00.649Z,2.81
2023-12-14T06:03:03.548Z,2.81
2023-12-14T06:04:05.309Z,2.80
2023-12-14T06:05:11.358Z,2.81
2023-12-14T06:06:19.269Z,2.80
2023-12-14T06:07:23.270Z,2.82
2023-12-14T06:08:25.040Z,2.82
2023-12-14T06:09:35.946Z,2.84
2023-12-14T06:10:38.318Z,2.84
2023-12-14T06:11:40.029Z,2.86
2023-12-14T06:12:42.627Z,2.85
2023-12-14T06:13:44.597Z,2.85
2023-12-14T06:14:46.680Z,2.82
2023-12-14T06:15:50.981Z,2.79
2023-12-14T06:16:53.729Z,2.79
2023-12-14T06:17:55.471Z,2.80
2023-12-14T06:18:57.353Z,2.81
2023-12-14T06:19:59.171Z,2.81
2023-12-14T06:21:01.501Z,2.82
2023-12-14T06:22:03.181Z,2.80
2023-12-14T06:23:05.312Z,2.79
2023-12-14T06:24:07.010Z,2.78
2023-12-14T06:25:09.878Z,2.77
2023-12-14T06:26:11.881Z,2.77
2023-12-14T06:27:13.598Z,2.77
2023-12-14T06:28:15.314Z,2.78
2023-12-14T06:29:19.453Z,2.78
2023-12-14T06:30:21.131Z,2.80
2023-12-14T06:31:23.060Z,2.79
2023-12-14T06:32:24.818Z,2.76
2023-12-14T06:33:26.631Z,2.77
2023-12-14T06:34:28.514Z,2.76
2023-12-14T06:35:30.107Z,2.76
2023-12-14T06:36:32.730Z,2.77
2023-12-14T06:37:34.633Z,2.77
2023-12-14T06:38:40.068Z,2.75
2023-12-14T06:39:43.500Z,2.74
2023-12-14T06:40:45.254Z,2.75
2023-12-14T06:41:46.856Z,2.76
2023-12-14T06:42:50.958Z,2.76
2023-12-14T06:43:54.025Z,2.73
2023-12-14T06:44:55.724Z,2.76
2023-12-14T06:45:57.864Z,2.74
2023-12-14T06:46:59.803Z,2.74
2023-12-14T06:48:01.837Z,2.73
2023-12-14T06:49:04.073Z,2.73
2023-12-14T06:50:06.672Z,2.73
2023-12-14T06:51:09.184Z,2.74
2023-12-14T06:52:11.783Z,2.75
2023-12-14T06:53:15.751Z,2.77
2023-12-14T06:54:18.398Z,2.77
2023-12-14T06:55:20.554Z,2.78
2023-12-14T06:56:24.917Z,2.78
2023-12-14T06:57:27.810Z,2.77
2023-12-14T06:58:30.431Z,2.77
2023-12-14T06:59:32.141Z,2.78
2023-12-14T07:00:33.791Z,2.73
2023-12-14T07:01:35.922Z,2.70
2023-12-14T07:02:38.253Z,2.70
2023-12-14T07:03:45.444Z,2.71
2023-12-14T07:04:47.422Z,2.73
2023-12-14T07:05:49.347Z,2.76
2023-12-14T07:06:53.496Z,2.78
2023-12-14T07:07:55.309Z,2.77
2023-12-14T07:08:57.048Z,2.78
2023-12-14T07:09:58.798Z,2.78
2023-12-14T07:11:00.525Z,2.77
2023-12-14T07:12:03.863Z,2.77
2023-12-14T07:13:05.789Z,2.74
2023-12-14T07:14:07.967Z,2.73
2023-12-14T07:15:10.358Z,2.71
2023-12-14T07:16:15.113Z,2.73
2023-12-14T07:17:17.051Z,2.73
2023-12-14T07:18:19.052Z,2.73
2023-12-14T07:19:20.727Z,2.75
2023-12-14T07:20:23.223Z,2.74
2023-12-14T07:21:25.150Z,2.76
2023-12-14T07:22:26.939Z,2.74
2023-12-14T07:23:28.877Z,2.75
2023-12-14T07:24:37.823Z,2.74
2023-12-14T07:25:46.396Z,2.76
2023-12-14T07:26:48.045Z,2.76
2023-12-14T07:27:50.387Z,2.76
2023-12-14T07:28:55.479Z,2.76
2023-12-14T07:29:57.504Z,2.76
2023-12-14T07:30:59.850Z,2.77
2023-12-14T07:32:04.030Z,2.77
2023-12-14T07:33:08.487Z,2.77
2023-12-14T07:34:10.858Z,2.75
2023-12-14T07:35:12.752Z,2.73
2023-12-14T07:36:14.805Z,2.73
2023-12-14T07:37:16.571Z,2.76
2023-12-14T07:38:18.426Z,2.74
2023-12-14T07:39:20.222Z,2.75
2023-12-14T07:40:21.860Z,2.74
2023-12-14T07:41:30.592Z,2.71
2023-12-14T07:42:32.949Z,2.70
2023-12-14T07:43:35.193Z,2.72
2023-12-14T07:44:37.009Z,2.72
2023-12-14T07:45:38.847Z,2.71
2023-12-14T07:46:42.613Z,2.72
2023-12-14T07:47:46.494Z,2.73
2023-12-14T07:48:48.754Z,2.73
2023-12-14T07:49:50.585Z,2.74
2023-12-14T07:50:52.943Z,2.73
2023-12-14T07:51:54.845Z,2.73
2023-12-14T07:52:56.833Z,2.74
2023-12-14T07:53:58.516Z,2.74
2023-12-14T07:55:00.398Z,2.73
2023-12-14T07:56:03.845Z,2.75
2023-12-14T07:57:05.658Z,2.76
2023-12-14T07:58:09.179Z,2.75
2023-12-14T07:59:11.504Z,2.74
2023-12-14T08:00:13.742Z,2.74
2023-12-14T08:01:18.393Z,2.75
2023-12-14T08:02:20.436Z,2.75
2023-12-14T08:03:22.409Z,2.75
2023-12-14T08:04:24.725Z,2.74
2023-12-14T08:05:26.562Z,2.73
2023-12-14T08:06:28.770Z,2.72
2023-12-14T08:07:30.726Z,2.74
2023-12-14T08:08:32.932Z,2.76
2023-12-14T08:09:34.939Z,2.78
2023-12-14T08:10:37.005Z,2.79
2023-12-14T08:11:38.723Z,2.78
2023-12-14T08:12:43.619Z,2.80
2023-12-14T08:13:45.397Z,2.81
2023-12-14T08:14:47.049Z,2.81
2023-12-14T08:15:48.945Z,2.82
2023-12-14T08:16:50.981Z,2.84
2023-12-14T08:17:53.045Z,2.86
2023-12-14T08:18:55.194Z,2.87
2023-12-14T08:19:57.275Z,2.85
2023-12-14T08:20:59.098Z,2.86
2023-12-14T08:22:01.448Z,2.85
2023-12-14T08:23:03.187Z,2.86
2023-12-14T08:24:08.340Z,2.86
2023-12-14T08:25:11.304Z,2.86
2023-12-14T08:26:14.203Z,2.87
2023-12-14T08:27:15.907Z,2.86
2023-12-14T08:28:17.725Z,2.86
2023-12-14T08:29:19.691Z,2.86
2023-12-14T08:30:22.232Z,2.87
2023-12-14T08:31:26.011Z,2.87
2023-12-14T08:32:27.775Z,2.86
2023-12-14T08:33:30.216Z,2.87
2023-12-14T08:34:31.906Z,2.84
2023-12-14T08:35:33.535Z,2.84
2023-12-14T08:36:35.791Z,2.84
2023-12-14T08:37:38.721Z,2.84
2023-12-14T08:38:40.458Z,2.84
2023-12-14T08:39:44.557Z,2.84
2023-12-14T08:40:46.428Z,2.85
2023-12-14T08:41:49.666Z,2.86
2023-12-14T08:42:54.696Z,2.86
2023-12-14T08:43:59.254Z,2.85
2023-12-14T08:45:00.941Z,2.86
2023-12-14T08:46:03.161Z,2.85
2023-12-14T08:47:05.768Z,2.83
2023-12-14T08:48:07.624Z,2.80
2023-12-14T08:49:09.673Z,2.82
2023-12-14T08:50:11.455Z,2.83
2023-12-14T08:51:15.363Z,2.83
2023-12-14T08:52:18.428Z,2.84
2023-12-14T08:53:20.529Z,2.84
2023-12-14T08:54:22.381Z,2.84
2023-12-14T08:55:24.236Z,2.86
2023-12-14T08:56:25.920Z,2.85
2023-12-14T08:57:27.801Z,2.86
2023-12-14T08:58:30.575Z,2.84
2023-12-14T08:59:32.803Z,2.83
2023-12-14T09:00:35.431Z,2.84
2023-12-14T09:01:39.853Z,2.82
2023-12-14T09:02:41.997Z,2.84
2023-12-14T09:03:44.096Z,2.83
2023-12-14T09:04:45.912Z,2.84
2023-12-14T09:05:47.793Z,2.84
2023-12-14T09:06:50.929Z,2.86
2023-12-14T09:07:57.813Z,2.87
2023-12-14T09:09:02.015Z,2.88
2023-12-14T09:10:03.893Z,2.86
2023-12-14T09:11:08.431Z,2.85
2023-12-14T09:12:10.939Z,2.85
2023-12-14T09:13:12.954Z,2.86
2023-12-14T09:14:15.093Z,2.87
2023-12-14T09:15:19.175Z,2.85
2023-12-14T09:16:20.921Z,2.84
2023-12-14T09:17:26.018Z,2.85
2023-12-14T09:18:27.946Z,2.84
2023-12-14T09:19:33.068Z,2.86
2023-12-14T09:20:36.631Z,2.87
2023-12-14T09:21:44.559Z,2.88
2023-12-14T09:22:48.601Z,2.87
2023-12-14T09:23:50.376Z,2.89
2023-12-14T09:24:52.006Z,2.89
2023-12-14T09:25:53.769Z,2.89
2023-12-14T09:26:55.465Z,2.89
2023-12-14T09:27:57.162Z,2.90
2023-12-14T09:28:58.761Z,2.92
2023-12-14T09:30:00.509Z,2.93
2023-12-14T09:31:03.039Z,2.90
2023-12-14T09:32:06.540Z,2.93
2023-12-14T09:33:09.996Z,2.95
2023-12-14T09:34:12.588Z,2.97
2023-12-14T09:35:15.350Z,2.97
2023-12-14T09:36:19.192Z,2.98
2023-12-14T09:37:20.853Z,3.00
2023-12-14T09:38:22.727Z,3.01
2023-12-14T09:39:24.696Z,3.04
2023-12-14T09:40:26.498Z,3.04
2023-12-14T09:41:28.092Z,3.05
2023-12-14T09:42:38.576Z,3.07
2023-12-14T09:43:40.276Z,3.08
2023-12-14T09:44:43.500Z,3.08
2023-12-14T09:45:49.543Z,3.10
2023-12-14T09:46:51.717Z,3.11
2023-12-14T09:47:54.751Z,3.12
2023-12-14T09:48:58.080Z,3.13
2023-12-14T09:50:01.077Z,3.13
2023-12-14T09:51:03.401Z,3.14
2023-12-14T09:52:05.223Z,3.12
2023-12-14T09:53:07.103Z,3.13
2023-12-14T09:54:08.760Z,3.13
2023-12-14T09:55:10.448Z,3.15
2023-12-14T09:56:12.096Z,3.14
2023-12-14T09:57:13.799Z,3.16
2023-12-14T09:58:15.486Z,3.17
2023-12-14T09:59:19.970Z,3.17
2023-12-14T10:00:35.578Z,3.19
2023-12-14T10:01:37.399Z,3.19
2023-12-14T10:02:39.422Z,3.20
2023-12-14T10:03:41.023Z,3.19
2023-12-14T10:04:45.372Z,3.21
2023-12-14T10:05:48.208Z,3.22
2023-12-14T10:06:50.065Z,3.23
2023-12-14T10:07:53.747Z,3.19
2023-12-14T10:08:57.692Z,3.20
2023-12-14T10:10:16.140Z,3.24
2023-12-14T10:11:17.913Z,3.24
2023-12-14T10:12:23.800Z,3.25
2023-12-14T10:13:38.741Z,3.25
2023-12-14T10:14:40.512Z,3.27
2023-12-14T10:15:46.347Z,3.26
2023-12-14T10:16:50.302Z,3.27
2023-12-14T10:17:56.557Z,3.28
2023-12-14T10:18:59.904Z,3.30
2023-12-14T10:20:06.192Z,3.30
2023-12-14T10:21:08.860Z,3.31
2023-12-14T10:22:10.505Z,3.32
2023-12-14T10:23:12.271Z,3.33
2023-12-14T10:24:18.533Z,3.34
2023-12-14T10:25:22.824Z,3.34
2023-12-14T10:26:26.840Z,3.33
2023-12-14T10:27:31.939Z,3.34
2023-12-14T10:28:33.844Z,3.34
2023-12-14T10:29:37.722Z,3.33
2023-12-14T10:30:40.682Z,3.33
2023-12-14T10:31:44.953Z,3.34
2023-12-14T10:32:50.422Z,3.35
2023-12-14T10:33:52.351Z,3.36
2023-12-14T10:34:55.324Z,3.35
2023-12-14T10:35:57.572Z,3.33
2023-12-14T10:36:59.618Z,3.32
2023-12-14T10:38:06.315Z,3.33
2023-12-14T10:39:16.306Z,3.32
2023-12-14T10:40:18.537Z,3.33
2023-12-14T10:41:21.876Z,3.34
2023-12-14T10:42:26.477Z,3.37
2023-12-14T10:43:47.592Z,3.37
2023-12-14T10:46:00.286Z,3.36
2023-12-14T10:47:05.191Z,3.39
2023-12-14T10:48:07.831Z,3.38
2023-12-14T10:49:11.434Z,3.38
2023-12-14T10:50:13.822Z,3.39
2023-12-14T10:51:16.687Z,3.42
2023-12-14T10:52:20.648Z,3.44
2023-12-14T10:53:28.020Z,3.45
2023-12-14T10:54:37.887Z,3.46
2023-12-14T10:55:43.841Z,3.46
2023-12-14T10:56:45.729Z,3.49
2023-12-14T10:57:48.592Z,3.48
2023-12-14T10:58:59.317Z,3.49
2023-12-14T11:00:03.193Z,3.50
2023-12-14T11:01:06.680Z,3.50
2023-12-14T11:02:11.067Z,3.52
2023-12-14T11:03:14.876Z,3.53
2023-12-14T11:04:18.031Z,3.53
2023-12-14T11:05:27.785Z,3.55
2023-12-14T11:06:34.605Z,3.55
2023-12-14T11:07:55.868Z,3.58
2023-12-14T11:09:11.411Z,3.56
2023-12-14T11:10:16.525Z,3.52
2023-12-14T11:11:21.534Z,3.52
2023-12-14T11:12:23.349Z,3.53
2023-12-14T11:13:25.181Z,3.53
2023-12-14T11:14:28.007Z,3.53
2023-12-14T11:15:35.589Z,3.55
2023-12-14T11:16:50.207Z,3.54
2023-12-14T11:18:16.162Z,3.57
2023-12-14T11:19:24.253Z,3.56
2023-12-14T11:20:26.302Z,3.56
2023-12-14T11:21:28.006Z,3.57
2023-12-14T11:22:30.742Z,3.57
2023-12-14T11:23:37.850Z,3.60
2023-12-14T11:24:46.453Z,3.62
2023-12-14T11:25:56.997Z,3.64
2023-12-14T11:27:05.925Z,3.65
2023-12-14T11:28:09.081Z,3.65
2023-12-14T11:29:10.931Z,3.64
2023-12-14T11:30:13.330Z,3.64
2023-12-14T11:31:15.237Z,3.65
2023-12-14T11:32:18.385Z,3.64
2023-12-14T11:33:20.110Z,3.67
2023-12-14T11:34:25.557Z,3.67
2023-12-14T11:35:27.542Z,3.66
2023-12-14T11:36:30.242Z,3.67
2023-12-14T11:38:36.027Z,3.68
2023-12-14T11:39:38.537Z,3.70
2023-12-14T11:40:41.213Z,3.66
2023-12-14T11:41:42.873Z,3.65
2023-12-14T11:42:47.723Z,3.68
2023-12-14T11:43:49.679Z,3.68
2023-12-14T11:44:51.322Z,3.69
2023-12-14T11:45:56.212Z,3.71
2023-12-14T11:46:58.089Z,3.74
2023-12-14T11:48:00.071Z,3.74
2023-12-14T11:49:04.637Z,3.78
2023-12-14T11:50:07.567Z,3.78
2023-12-14T11:51:09.643Z,3.79
2023-12-14T11:52:11.324Z,3.78
2023-12-14T11:53:13.541Z,3.79
2023-12-14T11:54:16.321Z,3.81
2023-12-14T11:55:18.134Z,3.80
2023-12-14T11:56:21.415Z,3.81
2023-12-14T11:57:24.274Z,3.82
2023-12-14T11:58:25.986Z,3.82
2023-12-14T11:59:30.822Z,3.82
2023-12-14T12:00:33.807Z,3.82
2023-12-14T12:01:36.931Z,3.83
2023-12-14T12:02:38.864Z,3.85
2023-12-14T12:03:40.567Z,3.85
2023-12-14T12:04:52.206Z,3.85
2023-12-14T12:05:54.640Z,3.86
2023-12-14T12:07:08.028Z,3.86
2023-12-14T12:08:13.361Z,3.86
2023-12-14T12:09:15.258Z,3.85
2023-12-14T12:10:16.933Z,3.81
2023-12-14T12:11:20.362Z,3.80
2023-12-14T12:12:25.367Z,3.81
2023-12-14T12:13:27.134Z,3.82
2023-12-14T12:14:29.627Z,3.81
2023-12-14T12:15:36.913Z,3.83
2023-12-14T12:16:38.751Z,3.82
2023-12-14T12:17:42.692Z,3.84
2023-12-14T12:18:47.667Z,3.86
2023-12-14T12:19:49.863Z,3.84
2023-12-14T12:20:51.743Z,3.86
2023-12-14T12:21:53.981Z,3.87
2023-12-14T12:22:55.571Z,3.86
2023-12-14T12:23:57.520Z,3.89
2023-12-14T12:25:08.522Z,3.89
2023-12-14T12:26:16.860Z,3.89
2023-12-14T12:27:18.779Z,3.90
2023-12-14T12:28:22.453Z,3.91
2023-12-14T12:29:24.594Z,3.91
2023-12-14T12:30:26.909Z,3.90
2023-12-14T12:31:28.761Z,3.90
2023-12-14T12:32:30.429Z,3.90
2023-12-14T12:33:38.654Z,3.89
2023-12-14T12:34:40.577Z,3.87
2023-12-14T12:35:44.522Z,3.86
2023-12-14T12:36:46.123Z,3.89
2023-12-14T12:37:50.385Z,3.86
2023-12-14T12:38:52.398Z,3.84
2023-12-14T12:39:54.035Z,3.82
2023-12-14T12:40:56.916Z,3.80
2023-12-14T12:41:58.714Z,3.82
2023-12-14T12:43:00.361Z,3.81
2023-12-14T12:44:06.745Z,3.80
2023-12-14T12:45:11.056Z,3.80
2023-12-14T12:46:12.601Z,3.79
2023-12-14T12:47:14.587Z,3.80
2023-12-14T12:48:16.571Z,3.78
2023-12-14T12:49:18.757Z,3.78
2023-12-14T12:50:21.697Z,3.79
2023-12-14T12:51:25.778Z,3.80
2023-12-14T12:52:27.854Z,3.79
2023-12-14T12:53:29.897Z,3.79
2023-12-14T12:54:34.306Z,3.79
2023-12-14T12:55:36.059Z,3.78
2023-12-14T12:56:37.824Z,3.80
2023-12-14T12:57:39.595Z,3.80
2023-12-14T12:58:41.224Z,3.80
2023-12-14T12:59:45.044Z,3.80
2023-12-14T13:00:46.688Z,3.79
2023-12-14T13:01:48.617Z,3.78
2023-12-14T13:02:50.283Z,3.78
2023-12-14T13:03:56.060Z,3.79
2023-12-14T13:04:59.182Z,3.79
2023-12-14T13:06:01.057Z,3.78
2023-12-14T13:07:05.190Z,3.78
2023-12-14T13:08:07.868Z,3.78
2023-12-14T13:09:09.610Z,3.76
2023-12-14T13:10:21.002Z,3.73
2023-12-14T13:11:30.701Z,3.73
2023-12-14T13:12:34.021Z,3.73
2023-12-14T13:13:35.597Z,3.71
2023-12-14T13:14:37.749Z,3.70
2023-12-14T13:15:40.225Z,3.66
2023-12-14T13:16:44.701Z,3.66
2023-12-14T13:17:46.380Z,3.59
2023-12-14T13:18:48.365Z,3.57
2023-12-14T13:19:50.194Z,3.55
2023-12-14T13:20:51.820Z,3.56
2023-12-14T13:21:53.801Z,3.55
2023-12-14T13:22:55.411Z,3.54
2023-12-14T13:23:58.943Z,3.57
2023-12-14T13:25:00.812Z,3.56
2023-12-14T13:26:02.536Z,3.56
2023-12-14T13:27:04.893Z,3.55
2023-12-14T13:28:06.552Z,3.56
2023-12-14T13:29:08.361Z,3.56
2023-12-14T13:30:10.383Z,3.56
2023-12-14T13:31:12.422Z,3.57
2023-12-14T13:32:14.623Z,3.55
2023-12-14T13:33:16.539Z,3.56
2023-12-14T13:34:18.381Z,3.54
2023-12-14T13:35:20.234Z,3.55
2023-12-14T13:36:21.860Z,3.54
2023-12-14T13:37:23.686Z,3.53
2023-12-14T13:38:25.610Z,3.53
2023-12-14T13:39:29.732Z,3.52
2023-12-14T13:40:31.419Z,3.48
2023-12-14T13:41:45.247Z,3.46
2023-12-14T13:42:59.969Z,3.46
2023-12-14T13:44:08.595Z,3.44
2023-12-14T13:45:10.765Z,3.45
2023-12-14T13:46:19.668Z,3.47
2023-12-14T13:47:23.984Z,3.44
2023-12-14T13:48:29.799Z,3.46
2023-12-14T13:49:31.607Z,3.47
2023-12-14T13:50:34.538Z,3.48
2023-12-14T13:51:36.346Z,3.49
2023-12-14T13:52:40.233Z,3.50
2023-12-14T13:53:42.035Z,3.53
2023-12-14T13:54:46.074Z,3.55
2023-12-14T13:55:50.468Z,3.54
2023-12-14T13:56:52.111Z,3.55
2023-12-14T13:57:56.036Z,3.54
2023-12-14T13:58:58.991Z,3.54
2023-12-14T14:00:05.428Z,3.54
2023-12-14T14:01:10.118Z,3.55